createdAt,value
2023-01-17T00:00:20.467Z,90.11
2023-01-17T00:03:24.190Z,88.79
2023-01-17T00:06:45.063Z,88.26
2023-01-17T00:09:57.280Z,87.09
2023-01-17T00:13:02.679Z,88.73
2023-01-17T00:16:07.207Z,89.31
2023-01-17T00:19:28.628Z,89.58
2023-01-17T00:22:50.549Z,89.96
2023-01-17T00:26:05.190Z,90.16
2023-01-17T00:29:07.662Z,88.08
2023-01-17T00:32:09.967Z,89.31
2023-01-17T00:35:12.274Z,89.85
2023-01-17T00:38:16.430Z,89.96
2023-01-17T00:41:20.380Z,89.59
2023-01-17T00:44:41.542Z,90.02
2023-01-17T00:48:04.390Z,89.73
2023-01-17T00:51:25.198Z,89.18
2023-01-17T00:54:45.823Z,89.55
2023-01-17T00:58:08.387Z,90.37
2023-01-17T01:01:29.785Z,89.59
2023-01-17T01:04:50.825Z,90.11
2023-01-17T01:08:11.941Z,89.25
2023-01-17T01:11:35.686Z,89.26
2023-01-17T01:14:58.521Z,89.48
2023-01-17T01:18:24.808Z,89.19
2023-01-17T01:21:45.946Z,89.55
2023-01-17T01:25:06.869Z,88.50
2023-01-17T01:28:30.423Z,89.73
2023-01-17T01:31:52.850Z,89.48
2023-01-17T01:34:56.424Z,88.18
2023-01-17T01:37:59.949Z,88.92
2023-01-17T01:41:03.626Z,89.07
2023-01-17T01:44:27.295Z,87.52
2023-01-17T01:47:37.428Z,87.58
2023-01-17T01:50:40.973Z,86.85
2023-01-17T01:53:48.311Z,86.49
2023-01-17T01:56:55.404Z,87.66
2023-01-17T02:00:03.356Z,87.94
2023-01-17T02:03:20.828Z,87.56
2023-01-17T02:06:31.701Z,88.89
2023-01-17T02:09:35.575Z,87.64
2023-01-17T02:12:39.866Z,86.77
2023-01-17T02:15:51.635Z,85.97
2023-01-17T02:19:10.312Z,87.09
2023-01-17T02:22:31.431Z,85.68
2023-01-17T02:26:03.056Z,88.15
2023-01-17T02:29:31.541Z,89.56
2023-01-17T02:32:48.185Z,89.73
2023-01-17T02:35:59.880Z,90.56
2023-01-17T02:39:10.715Z,91.34
2023-01-17T02:42:18.756Z,90.55
2023-01-17T02:45:23.753Z,89.32
2023-01-17T02:48:32.882Z,88.90
2023-01-17T02:51:49.252Z,88.60
2023-01-17T02:55:15.520Z,92.19
2023-01-17T02:58:32.322Z,92.23
2023-01-17T03:01:45.686Z,92.55
2023-01-17T03:04:55.651Z,91.54
2023-01-17T03:08:00.246Z,91.76
2023-01-17T03:11:03.843Z,91.96
2023-01-17T03:14:07.388Z,92.58
2023-01-17T03:17:11.205Z,91.95
2023-01-17T03:20:16.667Z,91.41
2023-01-17T03:23:20.463Z,91.72
2023-01-17T03:26:24.064Z,91.12
2023-01-17T03:29:27.630Z,91.67
2023-01-17T03:32:31.350Z,91.35
2023-01-17T03:35:36.527Z,90.96
2023-01-17T03:38:40.411Z,90.05
2023-01-17T03:41:44.064Z,89.32
2023-01-17T03:44:47.557Z,88.61
2023-01-17T03:47:51.002Z,88.48
2023-01-17T03:50:56.063Z,88.25
2023-01-17T03:53:59.661Z,88.49
2023-01-17T03:57:03.196Z,90.10
2023-01-17T04:00:08.222Z,90.50
2023-01-17T04:03:11.863Z,91.38
2023-01-17T04:06:16.903Z,91.33
2023-01-17T04:09:20.471Z,93.08
2023-01-17T04:12:24.153Z,91.48
2023-01-17T04:15:27.684Z,90.11
2023-01-17T04:18:31.411Z,89.47
2023-01-17T04:21:36.381Z,88.99
2023-01-17T04:24:39.947Z,89.28
2023-01-17T04:27:43.620Z,88.73
2023-01-17T04:30:47.225Z,90.23
2023-01-17T04:33:50.812Z,90.66
2023-01-17T04:36:55.768Z,90.59
2023-01-17T04:39:59.336Z,90.19
2023-01-17T04:43:02.920Z,92.36
2023-01-17T04:46:10.281Z,92.19
2023-01-17T04:49:14.193Z,94.44
2023-01-17T04:52:20.797Z,95.26
2023-01-17T04:55:24.371Z,94.88
2023-01-17T04:58:28.218Z,93.79
2023-01-17T05:01:32.148Z,94.48
2023-01-17T05:04:35.793Z,93.47
2023-01-17T05:07:41.199Z,94.51
2023-01-17T05:10:47.290Z,95.03
2023-01-17T05:13:51.419Z,93.21
2023-01-17T05:16:55.717Z,94.56
2023-01-17T05:19:59.659Z,93.77
2023-01-17T05:23:04.743Z,94.93
2023-01-17T05:26:08.534Z,94.39
2023-01-17T05:29:12.501Z,93.88
2023-01-17T05:32:16.237Z,92.60
2023-01-17T05:35:21.219Z,92.14
2023-01-17T05:38:26.405Z,92.54
2023-01-17T05:41:30.066Z,93.16
2023-01-17T05:44:33.772Z,93.82
2023-01-17T05:47:37.578Z,92.94
2023-01-17T05:50:41.311Z,98.98
2023-01-17T05:53:46.398Z,97.38
2023-01-17T05:56:50.098Z,95.45
2023-01-17T05:59:53.879Z,94.26
2023-01-17T06:02:59.056Z,97.47
2023-01-17T06:06:02.920Z,96.53
2023-01-17T06:09:08.249Z,100.00
2023-01-17T06:12:12.059Z,100.00
2023-01-17T06:15:18.019Z,97.97
2023-01-17T06:18:21.707Z,97.66
2023-01-17T06:21:25.478Z,95.59
2023-01-17T06:24:30.778Z,96.20
2023-01-17T06:27:34.560Z,95.98
2023-01-17T06:30:38.445Z,96.06
2023-01-17T06:33:42.259Z,94.57
2023-01-17T06:36:46.228Z,95.32
2023-01-17T06:39:51.639Z,95.62
2023-01-17T06:42:55.593Z,96.98
2023-01-17T06:45:59.459Z,98.11
2023-01-17T06:49:03.378Z,95.84
2023-01-17T06:52:07.158Z,96.31
2023-01-17T06:55:12.600Z,94.71
2023-01-17T06:58:16.423Z,94.26
2023-01-17T07:01:20.853Z,96.27
2023-01-17T07:04:24.671Z,94.05
2023-01-17T07:07:31.864Z,93.07
2023-01-17T07:10:38.884Z,92.81
2023-01-17T07:13:43.001Z,94.09
2023-01-17T07:16:49.368Z,93.02
2023-01-17T07:19:54.429Z,92.16
2023-01-17T07:22:58.422Z,93.23
2023-01-17T07:26:04.298Z,91.28
2023-01-17T07:29:08.466Z,92.62
2023-01-17T07:32:12.290Z,92.56
2023-01-17T07:35:16.228Z,92.93
2023-01-17T07:38:21.481Z,92.13
2023-01-17T07:41:27.227Z,93.00
2023-01-17T07:44:30.998Z,93.01
2023-01-17T07:47:34.999Z,91.45
2023-01-17T07:50:39.173Z,93.58
2023-01-17T07:53:43.019Z,90.27
2023-01-17T07:56:48.337Z,89.42
2023-01-17T07:59:52.478Z,88.75
2023-01-17T08:02:58.862Z,89.23
2023-01-17T08:06:02.818Z,90.98
2023-01-17T08:09:06.902Z,89.17
2023-01-17T08:12:12.371Z,88.75
2023-01-17T08:15:16.922Z,88.34
2023-01-17T08:18:20.741Z,88.00
2023-01-17T08:21:24.990Z,88.60
2023-01-17T08:24:28.861Z,87.42
2023-01-17T08:27:35.554Z,87.58
2023-01-17T08:30:40.278Z,88.97
2023-01-17T08:33:44.163Z,89.57
2023-01-17T08:36:48.218Z,90.44
2023-01-17T08:39:51.978Z,90.76
2023-01-17T08:42:58.620Z,89.51
2023-01-17T08:46:02.994Z,91.15
2023-01-17T08:49:06.900Z,91.69
2023-01-17T08:52:13.240Z,92.26
2023-01-17T08:55:17.523Z,92.51
2023-01-17T08:58:23.566Z,92.08
2023-01-17T09:01:27.767Z,93.57
2023-01-17T09:04:31.725Z,93.06
2023-01-17T09:07:35.784Z,91.41
2023-01-17T09:10:39.624Z,91.05
2023-01-17T09:13:45.150Z,89.08
2023-01-17T09:16:49.587Z,89.97
2023-01-17T09:19:53.416Z,88.93
2023-01-17T09:22:57.442Z,88.49
2023-01-17T09:26:01.761Z,89.46
2023-01-17T09:29:07.099Z,88.02
2023-01-17T09:32:10.959Z,88.43
2023-01-17T09:35:14.820Z,88.53
2023-01-17T09:38:18.663Z,87.35
2023-01-17T09:41:28.249Z,86.75
2023-01-17T09:44:43.171Z,87.32
2023-01-17T09:47:51.396Z,88.02
2023-01-17T09:51:00.398Z,87.04
2023-01-17T09:54:04.507Z,86.30
2023-01-17T09:57:30.518Z,84.72
2023-01-17T10:00:44.410Z,83.98
2023-01-17T10:04:11.907Z,83.79
2023-01-17T10:07:26.499Z,83.71
2023-01-17T10:10:40.398Z,82.16
2023-01-17T10:13:53.718Z,82.22
2023-01-17T10:17:08.856Z,82.45
2023-01-17T10:20:26.979Z,82.39
2023-01-17T10:23:58.247Z,81.22
2023-01-17T10:27:04.699Z,81.78
2023-01-17T10:30:19.139Z,82.71
2023-01-17T10:33:30.011Z,81.94
2023-01-17T10:36:39.473Z,84.11
2023-01-17T10:39:46.399Z,84.38
2023-01-17T10:42:57.771Z,84.39
2023-01-17T10:46:01.665Z,84.00
2023-01-17T10:49:07.179Z,85.19
2023-01-17T10:52:25.778Z,83.51
2023-01-17T10:55:40.199Z,84.29
2023-01-17T10:58:44.104Z,84.04
2023-01-17T11:01:50.298Z,83.14
2023-01-17T11:04:57.425Z,83.19
2023-01-17T11:08:03.080Z,82.61
2023-01-17T11:11:07.100Z,83.27
2023-01-17T11:14:20.159Z,82.97
2023-01-17T11:17:24.220Z,81.99
2023-01-17T11:20:36.565Z,84.66
2023-01-17T11:23:43.699Z,82.81
2023-01-17T11:26:49.938Z,81.87
2023-01-17T11:30:06.762Z,82.83
2023-01-17T11:33:34.700Z,82.52
2023-01-17T11:36:40.158Z,83.72
2023-01-17T11:39:44.489Z,82.99
2023-01-17T11:42:48.498Z,82.48
2023-01-17T11:46:17.250Z,82.21
2023-01-17T11:49:25.917Z,81.53
2023-01-17T11:52:37.745Z,81.37
2023-01-17T11:55:41.759Z,81.36
2023-01-17T11:58:47.501Z,81.28
2023-01-17T12:02:04.670Z,80.73
2023-01-17T12:05:20.069Z,80.13
2023-01-17T12:08:46.041Z,78.15
2023-01-17T12:12:16.184Z,78.12
2023-01-17T12:15:34.440Z,78.00
2023-01-17T12:18:50.196Z,77.35
2023-01-17T12:22:11.748Z,77.96
2023-01-17T12:25:38.259Z,78.45
2023-01-17T12:29:07.219Z,78.94
2023-01-17T12:32:34.880Z,79.40
2023-01-17T12:35:43.341Z,80.23
2023-01-17T12:38:49.540Z,82.33
2023-01-17T12:42:01.592Z,82.95
2023-01-17T12:45:09.714Z,82.83
2023-01-17T12:48:17.442Z,82.72
2023-01-17T12:51:28.031Z,82.00
2023-01-17T12:54:39.901Z,82.69
2023-01-17T12:57:51.458Z,83.99
2023-01-17T13:01:02.970Z,84.60
2023-01-17T13:04:21.467Z,82.96
2023-01-17T13:07:34.278Z,82.81
2023-01-17T13:10:46.417Z,81.95
2023-01-17T13:13:53.640Z,80.83
2023-01-17T13:17:00.409Z,79.45
2023-01-17T13:20:16.339Z,79.63
2023-01-17T13:23:30.918Z,79.81
2023-01-17T13:26:48.987Z,79.16
2023-01-17T13:30:12.601Z,80.51
2023-01-17T13:33:37.425Z,80.82
2023-01-17T13:36:53.119Z,81.22
2023-01-17T13:40:20.280Z,80.97
2023-01-17T13:43:27.158Z,82.00
2023-01-17T13:46:53.821Z,81.65
2023-01-17T13:49:57.600Z,83.00
2023-01-17T13:53:06.097Z,83.11
2023-01-17T13:56:14.962Z,82.91
2023-01-17T13:59:30.558Z,82.79
2023-01-17T14:02:42.476Z,83.25
2023-01-17T14:05:50.462Z,84.11
2023-01-17T14:08:54.722Z,82.61
2023-01-17T14:12:05.666Z,82.70
2023-01-17T14:15:22.507Z,83.37
2023-01-17T14:18:35.529Z,82.81
2023-01-17T14:21:39.450Z,82.14
2023-01-17T14:25:00.239Z,82.06
2023-01-17T14:28:08.122Z,82.06
2023-01-17T14:31:14.217Z,81.67
2023-01-17T14:34:23.541Z,81.78
2023-01-17T14:37:39.638Z,82.91
2023-01-17T14:40:52.823Z,83.41
2023-01-17T14:43:56.860Z,82.75
2023-01-17T14:47:01.020Z,82.57
2023-01-17T14:50:22.543Z,82.91
2023-01-17T14:53:28.416Z,82.93
2023-01-17T14:56:33.285Z,83.03
2023-01-17T14:59:37.118Z,83.43
2023-01-17T15:02:44.561Z,85.03
2023-01-17T15:05:52.792Z,83.91
2023-01-17T15:08:56.679Z,84.07
2023-01-17T15:12:01.101Z,83.94
2023-01-17T15:15:05.139Z,86.17
2023-01-17T15:18:21.209Z,85.11
2023-01-17T15:21:29.619Z,85.36
2023-01-17T15:24:41.642Z,86.14
2023-01-17T15:27:45.510Z,85.67
2023-01-17T15:31:06.616Z,85.96
2023-01-17T15:34:16.066Z,87.23
2023-01-17T15:37:30.032Z,86.31
2023-01-17T15:40:37.879Z,85.43
2023-01-17T15:43:43.539Z,85.58
2023-01-17T15:46:47.439Z,85.14
2023-01-17T15:49:53.066Z,85.58
2023-01-17T15:53:01.150Z,87.33
2023-01-17T15:56:23.750Z,86.82
2023-01-17T15:59:40.719Z,87.09
2023-01-17T16:02:45.664Z,87.27
2023-01-17T16:05:50.102Z,88.10
2023-01-17T16:08:56.362Z,87.22
2023-01-17T16:12:00.991Z,86.57
2023-01-17T16:15:12.871Z,86.81
2023-01-17T16:18:20.447Z,87.68
2023-01-17T16:21:27.085Z,87.57
2023-01-17T16:24:33.019Z,88.43
2023-01-17T16:27:36.898Z,89.07
2023-01-17T16:30:40.878Z,88.74
2023-01-17T16:33:46.205Z,88.23
2023-01-17T16:36:55.340Z,88.43
2023-01-17T16:40:00.674Z,90.53
2023-01-17T16:43:04.620Z,89.34
2023-01-17T16:46:09.039Z,89.08
2023-01-17T16:49:12.998Z,89.55
2023-01-17T16:52:16.862Z,89.02
2023-01-17T16:55:24.574Z,89.62
2023-01-17T16:58:28.358Z,89.77
2023-01-17T17:01:32.357Z,89.86
2023-01-17T17:04:36.239Z,88.94
2023-01-17T17:07:44.263Z,88.00
2023-01-17T17:10:49.579Z,87.56
2023-01-17T17:13:54.070Z,88.84
2023-01-17T17:17:00.791Z,88.77
2023-01-17T17:20:04.758Z,88.73
2023-01-17T17:23:10.164Z,88.98
2023-01-17T17:26:15.398Z,89.26
2023-01-17T17:29:19.278Z,89.57
2023-01-17T17:32:23.659Z,89.40
2023-01-17T17:35:28.318Z,89.03
2023-01-17T17:38:35.263Z,88.70
2023-01-17T17:41:44.018Z,91.30
2023-01-17T17:44:47.819Z,89.71
2023-01-17T17:47:51.830Z,89.55
2023-01-17T17:50:59.766Z,91.15
2023-01-17T17:54:05.812Z,93.05
2023-01-17T17:57:11.223Z,91.43
2023-01-17T18:00:15.841Z,90.92
2023-01-17T18:03:20.919Z,92.08
2023-01-17T18:06:25.419Z,92.17
2023-01-17T18:09:29.262Z,91.25
2023-01-17T18:12:34.697Z,90.89
2023-01-17T18:15:38.438Z,90.71
2023-01-17T18:18:45.462Z,91.01
2023-01-17T18:21:50.607Z,90.79
2023-01-17T18:24:54.341Z,90.56
2023-01-17T18:27:59.681Z,91.42
2023-01-17T18:31:08.161Z,92.64
2023-01-17T18:34:13.694Z,95.23
2023-01-17T18:37:17.582Z,93.28
2023-01-17T18:40:21.467Z,93.05
2023-01-17T18:43:27.938Z,93.55
2023-01-17T18:46:31.937Z,94.18
2023-01-17T18:49:35.838Z,93.57
2023-01-17T18:52:40.055Z,95.16
2023-01-17T18:55:44.037Z,93.62
2023-01-17T18:58:50.267Z,92.53
2023-01-17T19:01:54.416Z,92.08
2023-01-17T19:04:58.243Z,92.45
2023-01-17T19:08:02.097Z,93.74
2023-01-17T19:11:06.559Z,92.65
2023-01-17T19:14:12.788Z,92.12
2023-01-17T19:17:16.818Z,94.03
2023-01-17T19:20:20.579Z,93.04
2023-01-17T19:23:24.544Z,93.37
2023-01-17T19:26:30.174Z,93.40
2023-01-17T19:29:35.529Z,92.74
2023-01-17T19:32:39.399Z,93.32
2023-01-17T19:35:43.178Z,94.01
2023-01-17T19:39:03.053Z,93.28
2023-01-17T19:42:10.738Z,94.07
2023-01-17T19:45:16.489Z,93.13
2023-01-17T19:48:20.339Z,91.86
2023-01-17T19:51:25.321Z,91.52
2023-01-17T19:54:29.162Z,91.56
2023-01-17T19:57:35.198Z,93.26
2023-01-17T20:00:46.404Z,92.54
2023-01-17T20:03:52.409Z,92.37
2023-01-17T20:06:56.324Z,92.64
2023-01-17T20:10:00.120Z,91.05
2023-01-17T20:13:04.958Z,90.91
2023-01-17T20:16:12.026Z,90.06
2023-01-17T20:19:15.902Z,89.71
2023-01-17T20:22:19.798Z,88.75
2023-01-17T20:25:23.560Z,88.56
2023-01-17T20:28:28.458Z,89.36
2023-01-17T20:31:38.330Z,91.54
2023-01-17T20:34:44.086Z,90.07
2023-01-17T20:37:52.280Z,89.53
2023-01-17T20:40:56.559Z,90.59
2023-01-17T20:44:01.737Z,88.75
2023-01-17T20:47:07.119Z,87.86
2023-01-17T20:50:11.823Z,86.31
2023-01-17T20:53:16.318Z,85.55
2023-01-17T20:56:20.464Z,85.40
2023-01-17T20:59:24.817Z,84.98
2023-01-17T21:02:30.287Z,84.58
2023-01-17T21:05:34.178Z,84.86
2023-01-17T21:08:39.727Z,84.30
2023-01-17T21:11:43.677Z,86.03
2023-01-17T21:14:47.582Z,86.18
2023-01-17T21:17:52.909Z,85.50
2023-01-17T21:20:56.801Z,84.79
2023-01-17T21:24:01.536Z,85.36
2023-01-17T21:27:05.661Z,85.94
2023-01-17T21:30:11.479Z,85.42
2023-01-17T21:33:16.723Z,85.08
2023-01-17T21:36:21.241Z,86.79
2023-01-17T21:39:25.418Z,86.52
2023-01-17T21:42:29.279Z,86.38
2023-01-17T21:45:33.359Z,87.35
2023-01-17T21:48:39.706Z,87.91
2023-01-17T21:52:01.718Z,88.24
2023-01-17T21:55:23.238Z,89.67
2023-01-17T21:58:45.207Z,90.55
2023-01-17T22:01:49.129Z,90.27
2023-01-17T22:04:56.439Z,90.46
2023-01-17T22:08:15.880Z,90.91
2023-01-17T22:11:21.658Z,91.21
2023-01-17T22:14:25.499Z,90.84
2023-01-17T22:17:31.300Z,91.04
2023-01-17T22:20:40.162Z,91.49
2023-01-17T22:23:47.839Z,90.51
2023-01-17T22:26:51.699Z,90.72
2023-01-17T22:29:55.458Z,90.77
2023-01-17T22:32:59.831Z,90.79
2023-01-17T22:36:05.963Z,90.83
2023-01-17T22:39:11.221Z,89.72
2023-01-17T22:42:16.798Z,91.51
2023-01-17T22:45:20.519Z,91.09
2023-01-17T22:48:24.381Z,91.23
2023-01-17T22:51:30.337Z,90.52
2023-01-17T22:54:34.018Z,90.13
2023-01-17T22:57:38.162Z,89.73
2023-01-17T23:00:42.105Z,88.89
2023-01-17T23:03:46.780Z,88.02
2023-01-17T23:06:52.238Z,87.34
2023-01-17T23:09:55.967Z,86.77
2023-01-17T23:12:59.945Z,86.53
2023-01-17T23:16:23.926Z,86.10
2023-01-17T23:19:30.338Z,85.96
2023-01-17T23:22:36.259Z,85.58
2023-01-17T23:25:40.078Z,85.64
2023-01-17T23:28:42.802Z,86.01
2023-01-17T23:31:46.700Z,86.77
2023-01-17T23:34:50.652Z,86.10
2023-01-17T23:38:13.302Z,86.66
2023-01-17T23:41:46.199Z,86.36
2023-01-17T23:44:49.999Z,86.20
2023-01-17T23:47:53.939Z,86.27
2023-01-17T23:50:59.849Z,86.59
2023-01-17T23:54:06.552Z,87.69
2023-01-17T23:57:10.356Z,87.64
